sensor_id;sensor_type;location;lat;lon;timestamp;temperature;humidity
43862;DHT22;29510;52.140;5.034;2024-03-06T00:06:39;6.50;99.90
43862;DHT22;29510;52.140;5.034;2024-03-06T00:16:40;6.60;99.90
43862;DHT22;29510;52.140;5.034;2024-03-06T00:26:41;6.70;99.90
43862;DHT22;29510;52.140;5.034;2024-03-06T00:36:43;6.80;99.90
43862;DHT22;29510;52.140;5.034;2024-03-06T00:46:44;6.80;99.90
43862;DHT22;29510;52.140;5.034;2024-03-06T00:56:44;6.90;99.90
43862;DHT22;29510;52.140;5.034;2024-03-06T01:06:45;6.90;99.90
43862;DHT22;29510;52.140;5.034;2024-03-06T01:16:46;6.90;99.90
43862;DHT22;29510;52.140;5.034;2024-03-06T01:26:47;6.90;99.90
43862;DHT22;29510;52.140;5.034;2024-03-06T01:36:48;6.90;99.90
43862;DHT22;29510;52.140;5.034;2024-03-06T01:46:48;6.90;99.90
43862;DHT22;29510;52.140;5.034;2024-03-06T01:56:50;6.80;99.90
43862;DHT22;29510;52.140;5.034;2024-03-06T02:06:51;6.80;99.90
43862;DHT22;29510;52.140;5.034;2024-03-06T02:16:52;6.80;99.90
43862;DHT22;29510;52.140;5.034;2024-03-06T02:26:53;6.80;99.90
43862;DHT22;29510;52.140;5.034;2024-03-06T02:36:54;6.80;99.90
43862;DHT22;29510;52.140;5.034;2024-03-06T02:46:54;6.90;99.90
43862;DHT22;29510;52.140;5.034;2024-03-06T02:56:55;6.90;99.90
43862;DHT22;29510;52.140;5.034;2024-03-06T03:06:55;6.80;99.90
43862;DHT22;29510;52.140;5.034;2024-03-06T03:16:56;6.80;99.90
43862;DHT22;29510;52.140;5.034;2024-03-06T03:26:56;6.80;99.90
43862;DHT22;29510;52.140;5.034;2024-03-06T03:36:57;6.80;99.90
43862;DHT22;29510;52.140;5.034;2024-03-06T03:46:58;6.80;99.90
43862;DHT22;29510;52.140;5.034;2024-03-06T03:56:58;6.80;99.90
43862;DHT22;29510;52.140;5.034;2024-03-06T04:07:00;6.80;99.90
43862;DHT22;29510;52.140;5.034;2024-03-06T04:17:02;6.80;99.90
43862;DHT22;29510;52.140;5.034;2024-03-06T04:27:04;6.80;99.90
43862;DHT22;29510;52.140;5.034;2024-03-06T04:37:05;6.80;99.90
43862;DHT22;29510;52.140;5.034;2024-03-06T04:47:05;6.80;99.90
43862;DHT22;29510;52.140;5.034;2024-03-06T04:57:06;6.80;99.90
43862;DHT22;29510;52.140;5.034;2024-03-06T05:07:06;6.70;99.90
43862;DHT22;29510;52.140;5.034;2024-03-06T05:17:07;6.70;99.90
43862;DHT22;29510;52.140;5.034;2024-03-06T05:27:10;6.50;99.90
43862;DHT22;29510;52.140;5.034;2024-03-06T05:37:17;6.30;99.90
43862;DHT22;29510;52.140;5.034;2024-03-06T05:47:17;6.20;99.90
43862;DHT22;29510;52.140;5.034;2024-03-06T05:57:18;6.00;99.90
43862;DHT22;29510;52.140;5.034;2024-03-06T06:07:19;5.80;99.90
43862;DHT22;29510;52.140;5.034;2024-03-06T06:17:19;5.80;99.90
43862;DHT22;29510;52.140;5.034;2024-03-06T06:27:21;5.80;99.90
43862;DHT22;29510;52.140;5.034;2024-03-06T06:37:21;5.70;99.90
43862;DHT22;29510;52.140;5.034;2024-03-06T06:47:22;5.60;99.90
43862;DHT22;29510;52.140;5.034;2024-03-06T06:57:22;5.70;99.90
43862;DHT22;29510;52.140;5.034;2024-03-06T07:07:23;5.80;99.90
43862;DHT22;29510;52.140;5.034;2024-03-06T07:17:24;5.70;99.90
43862;DHT22;29510;52.140;5.034;2024-03-06T07:27:24;5.80;99.90
43862;DHT22;29510;52.140;5.034;2024-03-06T07:37:25;5.80;99.90
43862;DHT22;29510;52.140;5.034;2024-03-06T07:47:25;5.80;99.90
43862;DHT22;29510;52.140;5.034;2024-03-06T07:57:27;6.00;99.90
43862;DHT22;29510;52.140;5.034;2024-03-06T08:07:28;6.30;99.90
43862;DHT22;29510;52.140;5.034;2024-03-06T08:17:28;6.50;99.90
43862;DHT22;29510;52.140;5.034;2024-03-06T08:27:29;6.60;99.90
43862;DHT22;29510;52.140;5.034;2024-03-06T08:37:33;6.70;99.90
43862;DHT22;29510;52.140;5.034;2024-03-06T08:47:34;6.90;99.90
43862;DHT22;29510;52.140;5.034;2024-03-06T08:57:35;7.30;99.90
43862;DHT22;29510;52.140;5.034;2024-03-06T09:07:37;7.70;99.90
43862;DHT22;29510;52.140;5.034;2024-03-06T09:17:38;8.20;99.90
43862;DHT22;29510;52.140;5.034;2024-03-06T09:27:39;8.70;99.90
43862;DHT22;29510;52.140;5.034;2024-03-06T09:37:39;8.90;92.90
43862;DHT22;29510;52.140;5.034;2024-03-06T09:47:40;9.20;67.10
43862;DHT22;29510;52.140;5.034;2024-03-06T09:57:41;9.30;43.50
43862;DHT22;29510;52.140;5.034;2024-03-06T10:07:41;9.50;21.70
43862;DHT22;29510;52.140;5.034;2024-03-06T10:17:42;9.50;23.50
43862;DHT22;29510;52.140;5.034;2024-03-06T10:27:43;9.90;16.60
43862;DHT22;29510;52.140;5.034;2024-03-06T10:37:45;10.00;10.30
43862;DHT22;29510;52.140;5.034;2024-03-06T10:47:46;10.20;6.40
43862;DHT22;29510;52.140;5.034;2024-03-06T10:57:48;10.40;1.00
43862;DHT22;29510;52.140;5.034;2024-03-06T11:07:50;10.60;1.00
43862;DHT22;29510;52.140;5.034;2024-03-06T11:17:51;11.20;1.00
43862;DHT22;29510;52.140;5.034;2024-03-06T11:28:10;12.40;1.00
43862;DHT22;29510;52.140;5.034;2024-03-06T11:38:10;13.30;1.00
43862;DHT22;29510;52.140;5.034;2024-03-06T11:48:14;13.90;1.00
43862;DHT22;29510;52.140;5.034;2024-03-06T11:58:17;14.40;1.00
43862;DHT22;29510;52.140;5.034;2024-03-06T12:08:18;15.00;1.00
43862;DHT22;29510;52.140;5.034;2024-03-06T12:18:19;15.10;1.00
43862;DHT22;29510;52.140;5.034;2024-03-06T12:28:24;15.40;1.00
43862;DHT22;29510;52.140;5.034;2024-03-06T12:38:28;16.00;1.00
43862;DHT22;29510;52.140;5.034;2024-03-06T12:48:29;15.60;1.00
43862;DHT22;29510;52.140;5.034;2024-03-06T12:58:30;14.90;1.00
43862;DHT22;29510;52.140;5.034;2024-03-06T13:08:36;15.10;1.00
43862;DHT22;29510;52.140;5.034;2024-03-06T13:18:37;15.80;1.00
43862;DHT22;29510;52.140;5.034;2024-03-06T13:28:37;16.50;1.00
43862;DHT22;29510;52.140;5.034;2024-03-06T13:38:38;16.70;1.00
43862;DHT22;29510;52.140;5.034;2024-03-06T13:48:39;17.40;1.00
43862;DHT22;29510;52.140;5.034;2024-03-06T13:58:40;17.20;1.00
43862;DHT22;29510;52.140;5.034;2024-03-06T14:08:41;17.10;1.00
43862;DHT22;29510;52.140;5.034;2024-03-06T14:18:44;18.10;1.00
43862;DHT22;29510;52.140;5.034;2024-03-06T14:28:44;17.70;1.00
43862;DHT22;29510;52.140;5.034;2024-03-06T14:38:45;18.30;1.00
43862;DHT22;29510;52.140;5.034;2024-03-06T14:48:46;17.70;1.00
43862;DHT22;29510;52.140;5.034;2024-03-06T14:58:47;17.10;1.00
43862;DHT22;29510;52.140;5.034;2024-03-06T15:08:48;15.60;1.00
43862;DHT22;29510;52.140;5.034;2024-03-06T15:18:48;15.40;1.00
43862;DHT22;29510;52.140;5.034;2024-03-06T15:28:49;15.10;1.00
43862;DHT22;29510;52.140;5.034;2024-03-06T15:38:50;14.90;1.00
43862;DHT22;29510;52.140;5.034;2024-03-06T15:48:50;14.30;1.00
43862;DHT22;29510;52.140;5.034;2024-03-06T15:58:52;13.70;1.00
43862;DHT22;29510;52.140;5.034;2024-03-06T16:08:53;13.50;1.00
43862;DHT22;29510;52.140;5.034;2024-03-06T16:18:54;13.10;1.00
43862;DHT22;29510;52.140;5.034;2024-03-06T16:28:55;12.80;1.00
43862;DHT22;29510;52.140;5.034;2024-03-06T16:38:55;12.60;1.00
43862;DHT22;29510;52.140;5.034;2024-03-06T16:48:56;12.40;1.00
43862;DHT22;29510;52.140;5.034;2024-03-06T16:58:57;12.20;1.00
43862;DHT22;29510;52.140;5.034;2024-03-06T17:08:58;12.00;1.00
43862;DHT22;29510;52.140;5.034;2024-03-06T17:18:58;11.90;1.00
43862;DHT22;29510;52.140;5.034;2024-03-06T17:29:03;11.80;1.00
43862;DHT22;29510;52.140;5.034;2024-03-06T17:39:05;11.80;1.00
43862;DHT22;29510;52.140;5.034;2024-03-06T17:49:09;11.70;1.00
43862;DHT22;29510;52.140;5.034;2024-03-06T17:59:10;11.50;1.00
43862;DHT22;29510;52.140;5.034;2024-03-06T18:09:11;11.40;1.00
43862;DHT22;29510;52.140;5.034;2024-03-06T18:19:15;11.10;1.00
43862;DHT22;29510;52.140;5.034;2024-03-06T18:29:16;10.80;1.00
43862;DHT22;29510;52.140;5.034;2024-03-06T18:39:16;10.60;1.00
43862;DHT22;29510;52.140;5.034;2024-03-06T18:49:18;10.30;1.00
43862;DHT22;29510;52.140;5.034;2024-03-06T18:59:21;10.20;1.00
43862;DHT22;29510;52.140;5.034;2024-03-06T19:09:22;10.00;1.00
43862;DHT22;29510;52.140;5.034;2024-03-06T19:19:23;9.80;1.00
43862;DHT22;29510;52.140;5.034;2024-03-06T19:29:24;9.70;1.00
43862;DHT22;29510;52.140;5.034;2024-03-06T19:39:25;9.50;1.00
43862;DHT22;29510;52.140;5.034;2024-03-06T19:49:26;9.40;1.00
43862;DHT22;29510;52.140;5.034;2024-03-06T19:59:29;9.30;1.00
43862;DHT22;29510;52.140;5.034;2024-03-06T20:09:30;9.20;1.00
43862;DHT22;29510;52.140;5.034;2024-03-06T20:19:30;9.10;1.00
43862;DHT22;29510;52.140;5.034;2024-03-06T20:29:31;9.00;1.00
43862;DHT22;29510;52.140;5.034;2024-03-06T20:39:32;8.80;1.00
43862;DHT22;29510;52.140;5.034;2024-03-06T20:49:36;8.70;1.00
43862;DHT22;29510;52.140;5.034;2024-03-06T20:59:36;8.60;1.00
43862;DHT22;29510;52.140;5.034;2024-03-06T21:09:37;8.50;1.00
43862;DHT22;29510;52.140;5.034;2024-03-06T21:19:39;8.30;1.00
43862;DHT22;29510;52.140;5.034;2024-03-06T21:29:40;8.20;1.00
43862;DHT22;29510;52.140;5.034;2024-03-06T21:39:40;8.10;1.00
43862;DHT22;29510;52.140;5.034;2024-03-06T21:49:41;7.90;1.10
43862;DHT22;29510;52.140;5.034;2024-03-06T21:59:42;7.80;3.80
43862;DHT22;29510;52.140;5.034;2024-03-06T22:09:43;7.70;8.00
43862;DHT22;29510;52.140;5.034;2024-03-06T22:19:43;7.60;7.80
43862;DHT22;29510;52.140;5.034;2024-03-06T22:29:44;7.50;10.70
43862;DHT22;29510;52.140;5.034;2024-03-06T22:39:44;7.30;17.50
43862;DHT22;29510;52.140;5.034;2024-03-06T22:49:45;7.10;16.50
43862;DHT22;29510;52.140;5.034;2024-03-06T22:59:45;7.10;18.10
43862;DHT22;29510;52.140;5.034;2024-03-06T23:09:46;6.90;23.80
43862;DHT22;29510;52.140;5.034;2024-03-06T23:19:47;6.90;29.00
43862;DHT22;29510;52.140;5.034;2024-03-06T23:29:47;6.90;29.60
43862;DHT22;29510;52.140;5.034;2024-03-06T23:39:48;6.70;29.70
43862;DHT22;29510;52.140;5.034;2024-03-06T23:49:49;6.60;30.40
43862;DHT22;29510;52.140;5.034;2024-03-06T23:59:49;6.50;35.40
